sensor_id;sensor_type;location;lat;lon;timestamp;temperature;humidity
42227;DHT22;27892;52.378;13.122;2023-04-20T00:00:20;11.10;73.30
42227;DHT22;27892;52.378;13.122;2023-04-20T00:02:46;11.10;73.10
42227;DHT22;27892;52.378;13.122;2023-04-20T00:05:12;11.20;73.20
42227;DHT22;27892;52.378;13.122;2023-04-20T00:07:37;11.20;73.20
42227;DHT22;27892;52.378;13.122;2023-04-20T00:10:06;11.20;73.40
42227;DHT22;27892;52.378;13.122;2023-04-20T00:12:32;11.20;73.10
42227;DHT22;27892;52.378;13.122;2023-04-20T00:14:58;11.20;73.10
42227;DHT22;27892;52.378;13.122;2023-04-20T00:17:23;11.10;72.90
42227;DHT22;27892;52.378;13.122;2023-04-20T00:19:49;11.10;72.80
42227;DHT22;27892;52.378;13.122;2023-04-20T00:22:15;11.10;73.00
42227;DHT22;27892;52.378;13.122;2023-04-20T00:24:41;11.20;72.80
42227;DHT22;27892;52.378;13.122;2023-04-20T00:27:07;11.20;73.00
42227;DHT22;27892;52.378;13.122;2023-04-20T00:29:32;11.20;72.90
42227;DHT22;27892;52.378;13.122;2023-04-20T00:31:58;11.20;72.70
42227;DHT22;27892;52.378;13.122;2023-04-20T00:34:24;11.20;73.00
42227;DHT22;27892;52.378;13.122;2023-04-20T00:36:49;11.20;72.80
42227;DHT22;27892;52.378;13.122;2023-04-20T00:39:15;11.20;72.80
42227;DHT22;27892;52.378;13.122;2023-04-20T00:41:41;11.10;72.70
42227;DHT22;27892;52.378;13.122;2023-04-20T00:44:07;11.20;72.80
42227;DHT22;27892;52.378;13.122;2023-04-20T00:46:36;11.10;72.60
42227;DHT22;27892;52.378;13.122;2023-04-20T00:49:01;11.20;73.00
42227;DHT22;27892;52.378;13.122;2023-04-20T00:51:27;11.20;72.90
42227;DHT22;27892;52.378;13.122;2023-04-20T00:53:53;11.20;72.70
42227;DHT22;27892;52.378;13.122;2023-04-20T00:56:19;11.10;72.70
42227;DHT22;27892;52.378;13.122;2023-04-20T00:58:45;11.10;73.00
42227;DHT22;27892;52.378;13.122;2023-04-20T01:01:11;11.20;73.30
42227;DHT22;27892;52.378;13.122;2023-04-20T01:03:41;11.10;72.70
42227;DHT22;27892;52.378;13.122;2023-04-20T01:06:08;11.10;72.70
42227;DHT22;27892;52.378;13.122;2023-04-20T01:08:33;11.10;72.60
42227;DHT22;27892;52.378;13.122;2023-04-20T01:10:59;11.10;72.60
42227;DHT22;27892;52.378;13.122;2023-04-20T01:13:25;11.00;72.20
42227;DHT22;27892;52.378;13.122;2023-04-20T01:15:51;10.90;72.10
42227;DHT22;27892;52.378;13.122;2023-04-20T01:18:17;10.80;72.60
42227;DHT22;27892;52.378;13.122;2023-04-20T01:20:45;10.70;72.70
42227;DHT22;27892;52.378;13.122;2023-04-20T01:23:11;10.70;73.00
42227;DHT22;27892;52.378;13.122;2023-04-20T01:25:37;10.70;73.10
42227;DHT22;27892;52.378;13.122;2023-04-20T01:28:03;10.70;73.20
42227;DHT22;27892;52.378;13.122;2023-04-20T01:30:30;10.70;73.60
42227;DHT22;27892;52.378;13.122;2023-04-20T01:32:56;10.70;73.00
42227;DHT22;27892;52.378;13.122;2023-04-20T01:35:22;10.70;72.90
42227;DHT22;27892;52.378;13.122;2023-04-20T01:37:47;10.70;73.00
42227;DHT22;27892;52.378;13.122;2023-04-20T01:40:14;10.60;72.70
42227;DHT22;27892;52.378;13.122;2023-04-20T01:42:40;10.50;72.90
42227;DHT22;27892;52.378;13.122;2023-04-20T01:45:06;10.50;73.00
42227;DHT22;27892;52.378;13.122;2023-04-20T01:47:33;10.50;73.20
42227;DHT22;27892;52.378;13.122;2023-04-20T01:49:58;10.50;73.40
42227;DHT22;27892;52.378;13.122;2023-04-20T01:52:24;10.50;72.90
42227;DHT22;27892;52.378;13.122;2023-04-20T01:54:50;10.50;73.10
42227;DHT22;27892;52.378;13.122;2023-04-20T01:57:16;10.50;73.20
42227;DHT22;27892;52.378;13.122;2023-04-20T01:59:41;10.50;73.20
42227;DHT22;27892;52.378;13.122;2023-04-20T02:02:07;10.50;73.20
42227;DHT22;27892;52.378;13.122;2023-04-20T02:04:33;10.50;73.20
42227;DHT22;27892;52.378;13.122;2023-04-20T02:06:58;10.60;73.50
42227;DHT22;27892;52.378;13.122;2023-04-20T02:09:24;10.60;73.30
42227;DHT22;27892;52.378;13.122;2023-04-20T02:11:50;10.60;73.00
42227;DHT22;27892;52.378;13.122;2023-04-20T02:14:15;10.60;72.70
42227;DHT22;27892;52.378;13.122;2023-04-20T02:16:41;10.60;73.20
42227;DHT22;27892;52.378;13.122;2023-04-20T02:19:07;10.60;73.00
42227;DHT22;27892;52.378;13.122;2023-04-20T02:21:33;10.60;73.20
42227;DHT22;27892;52.378;13.122;2023-04-20T02:23:59;10.60;73.10
42227;DHT22;27892;52.378;13.122;2023-04-20T02:26:25;10.60;73.40
42227;DHT22;27892;52.378;13.122;2023-04-20T02:28:51;10.70;72.80
42227;DHT22;27892;52.378;13.122;2023-04-20T02:31:17;10.70;72.50
42227;DHT22;27892;52.378;13.122;2023-04-20T02:33:43;10.60;73.00
42227;DHT22;27892;52.378;13.122;2023-04-20T02:36:09;10.70;73.30
42227;DHT22;27892;52.378;13.122;2023-04-20T02:38:34;10.70;73.20
42227;DHT22;27892;52.378;13.122;2023-04-20T02:41:00;10.80;73.40
42227;DHT22;27892;52.378;13.122;2023-04-20T02:43:26;10.80;72.70
42227;DHT22;27892;52.378;13.122;2023-04-20T02:45:51;10.80;72.80
42227;DHT22;27892;52.378;13.122;2023-04-20T02:48:17;10.90;73.20
42227;DHT22;27892;52.378;13.122;2023-04-20T02:50:43;10.90;73.10
42227;DHT22;27892;52.378;13.122;2023-04-20T02:53:08;10.90;72.40
42227;DHT22;27892;52.378;13.122;2023-04-20T02:55:34;10.80;72.20
42227;DHT22;27892;52.378;13.122;2023-04-20T02:58:00;10.70;71.80
42227;DHT22;27892;52.378;13.122;2023-04-20T03:00:25;10.70;72.40
42227;DHT22;27892;52.378;13.122;2023-04-20T03:02:51;10.70;72.30
42227;DHT22;27892;52.378;13.122;2023-04-20T03:05:17;10.60;71.90
42227;DHT22;27892;52.378;13.122;2023-04-20T03:07:43;10.60;72.30
42227;DHT22;27892;52.378;13.122;2023-04-20T03:10:09;10.50;72.20
42227;DHT22;27892;52.378;13.122;2023-04-20T03:12:35;10.40;72.10
42227;DHT22;27892;52.378;13.122;2023-04-20T03:15:01;10.50;72.70
42227;DHT22;27892;52.378;13.122;2023-04-20T03:17:28;10.50;72.70
42227;DHT22;27892;52.378;13.122;2023-04-20T03:19:54;10.50;72.90
42227;DHT22;27892;52.378;13.122;2023-04-20T03:22:20;10.50;72.90
42227;DHT22;27892;52.378;13.122;2023-04-20T03:24:46;10.60;73.10
42227;DHT22;27892;52.378;13.122;2023-04-20T03:27:12;10.50;72.40
42227;DHT22;27892;52.378;13.122;2023-04-20T03:29:38;10.50;72.70
42227;DHT22;27892;52.378;13.122;2023-04-20T03:32:04;10.50;72.60
42227;DHT22;27892;52.378;13.122;2023-04-20T03:34:30;10.50;72.60
42227;DHT22;27892;52.378;13.122;2023-04-20T03:36:56;10.60;73.00
42227;DHT22;27892;52.378;13.122;2023-04-20T03:39:22;10.60;72.90
42227;DHT22;27892;52.378;13.122;2023-04-20T03:41:47;10.60;72.70
42227;DHT22;27892;52.378;13.122;2023-04-20T03:44:13;10.60;72.60
42227;DHT22;27892;52.378;13.122;2023-04-20T03:46:39;10.60;72.60
42227;DHT22;27892;52.378;13.122;2023-04-20T03:49:05;10.50;72.60
42227;DHT22;27892;52.378;13.122;2023-04-20T03:51:31;10.60;72.90
42227;DHT22;27892;52.378;13.122;2023-04-20T03:53:57;10.60;72.80
42227;DHT22;27892;52.378;13.122;2023-04-20T03:56:22;10.60;72.40
42227;DHT22;27892;52.378;13.122;2023-04-20T03:58:48;10.50;72.40
42227;DHT22;27892;52.378;13.122;2023-04-20T04:01:14;10.60;72.80
42227;DHT22;27892;52.378;13.122;2023-04-20T04:03:40;10.60;72.50
42227;DHT22;27892;52.378;13.122;2023-04-20T04:06:06;10.50;72.50
42227;DHT22;27892;52.378;13.122;2023-04-20T04:08:32;10.50;73.30
42227;DHT22;27892;52.378;13.122;2023-04-20T04:10:59;10.40;72.80
42227;DHT22;27892;52.378;13.122;2023-04-20T04:13:24;10.50;72.80
42227;DHT22;27892;52.378;13.122;2023-04-20T04:15:50;10.50;73.20
42227;DHT22;27892;52.378;13.122;2023-04-20T04:18:16;10.60;73.20
42227;DHT22;27892;52.378;13.122;2023-04-20T04:20:41;10.60;72.70
42227;DHT22;27892;52.378;13.122;2023-04-20T04:23:07;10.50;73.60
42227;DHT22;27892;52.378;13.122;2023-04-20T04:25:33;10.40;72.40
42227;DHT22;27892;52.378;13.122;2023-04-20T04:28:02;10.40;72.70
42227;DHT22;27892;52.378;13.122;2023-04-20T04:30:27;10.40;73.30
42227;DHT22;27892;52.378;13.122;2023-04-20T04:32:53;10.30;72.10
42227;DHT22;27892;52.378;13.122;2023-04-20T04:35:19;10.20;72.70
42227;DHT22;27892;52.378;13.122;2023-04-20T04:37:46;10.20;72.50
42227;DHT22;27892;52.378;13.122;2023-04-20T04:40:12;10.20;72.90
42227;DHT22;27892;52.378;13.122;2023-04-20T04:42:38;10.30;72.70
42227;DHT22;27892;52.378;13.122;2023-04-20T04:45:04;10.30;72.30
42227;DHT22;27892;52.378;13.122;2023-04-20T04:47:33;10.40;72.20
42227;DHT22;27892;52.378;13.122;2023-04-20T04:50:04;10.30;71.50
42227;DHT22;27892;52.378;13.122;2023-04-20T04:52:31;10.30;72.10
42227;DHT22;27892;52.378;13.122;2023-04-20T04:54:57;10.10;71.50
42227;DHT22;27892;52.378;13.122;2023-04-20T04:57:23;10.00;72.50
42227;DHT22;27892;52.378;13.122;2023-04-20T04:59:49;10.00;72.70
42227;DHT22;27892;52.378;13.122;2023-04-20T05:02:14;10.00;72.20
42227;DHT22;27892;52.378;13.122;2023-04-20T05:04:41;10.10;72.40
42227;DHT22;27892;52.378;13.122;2023-04-20T05:07:06;10.10;72.00
42227;DHT22;27892;52.378;13.122;2023-04-20T05:09:37;10.20;72.00
42227;DHT22;27892;52.378;13.122;2023-04-20T05:12:02;10.20;72.00
42227;DHT22;27892;52.378;13.122;2023-04-20T05:14:32;10.30;71.30
42227;DHT22;27892;52.378;13.122;2023-04-20T05:16:58;10.10;70.90
42227;DHT22;27892;52.378;13.122;2023-04-20T05:19:24;10.20;71.40
42227;DHT22;27892;52.378;13.122;2023-04-20T05:21:50;10.10;70.60
42227;DHT22;27892;52.378;13.122;2023-04-20T05:24:16;10.20;71.30
42227;DHT22;27892;52.378;13.122;2023-04-20T05:26:42;10.20;71.30
42227;DHT22;27892;52.378;13.122;2023-04-20T05:29:08;10.20;71.10
42227;DHT22;27892;52.378;13.122;2023-04-20T05:31:34;10.20;70.90
42227;DHT22;27892;52.378;13.122;2023-04-20T05:33:59;10.20;71.20
42227;DHT22;27892;52.378;13.122;2023-04-20T05:36:27;10.20;70.90
42227;DHT22;27892;52.378;13.122;2023-04-20T05:38:53;10.30;70.90
42227;DHT22;27892;52.378;13.122;2023-04-20T05:41:19;10.30;70.40
42227;DHT22;27892;52.378;13.122;2023-04-20T05:43:51;10.40;70.60
42227;DHT22;27892;52.378;13.122;2023-04-20T05:46:16;10.40;70.10
42227;DHT22;27892;52.378;13.122;2023-04-20T05:48:42;10.40;70.40
42227;DHT22;27892;52.378;13.122;2023-04-20T05:51:07;10.40;70.50
42227;DHT22;27892;52.378;13.122;2023-04-20T05:53:33;10.50;71.20
42227;DHT22;27892;52.378;13.122;2023-04-20T05:55:59;10.70;71.90
42227;DHT22;27892;52.378;13.122;2023-04-20T05:58:24;10.90;70.80
42227;DHT22;27892;52.378;13.122;2023-04-20T06:00:51;11.90;71.60
42227;DHT22;27892;52.378;13.122;2023-04-20T06:03:17;13.60;69.00
42227;DHT22;27892;52.378;13.122;2023-04-20T06:05:43;15.40;66.00
42227;DHT22;27892;52.378;13.122;2023-04-20T06:08:08;17.00;59.80
42227;DHT22;27892;52.378;13.122;2023-04-20T06:10:34;17.30;55.80
42227;DHT22;27892;52.378;13.122;2023-04-20T06:13:00;16.70;53.80
42227;DHT22;27892;52.378;13.122;2023-04-20T06:15:26;15.50;53.30
42227;DHT22;27892;52.378;13.122;2023-04-20T06:17:51;14.20;54.20
42227;DHT22;27892;52.378;13.122;2023-04-20T06:20:17;13.30;56.40
42227;DHT22;27892;52.378;13.122;2023-04-20T06:22:44;12.80;58.40
42227;DHT22;27892;52.378;13.122;2023-04-20T06:25:10;12.50;59.50
42227;DHT22;27892;52.378;13.122;2023-04-20T06:27:36;12.40;60.40
42227;DHT22;27892;52.378;13.122;2023-04-20T06:30:02;12.30;61.60
42227;DHT22;27892;52.378;13.122;2023-04-20T06:32:28;12.20;61.50
42227;DHT22;27892;52.378;13.122;2023-04-20T06:34:54;12.20;61.40
42227;DHT22;27892;52.378;13.122;2023-04-20T06:37:19;11.90;61.00
42227;DHT22;27892;52.378;13.122;2023-04-20T06:39:45;11.80;62.10
42227;DHT22;27892;52.378;13.122;2023-04-20T06:42:11;11.70;61.30
42227;DHT22;27892;52.378;13.122;2023-04-20T06:44:38;11.60;62.70
42227;DHT22;27892;52.378;13.122;2023-04-20T06:47:04;11.70;63.90
42227;DHT22;27892;52.378;13.122;2023-04-20T06:49:30;11.90;63.70
42227;DHT22;27892;52.378;13.122;2023-04-20T06:51:55;12.00;63.00
42227;DHT22;27892;52.378;13.122;2023-04-20T06:54:21;11.90;62.20
42227;DHT22;27892;52.378;13.122;2023-04-20T06:56:47;11.80;61.70
42227;DHT22;27892;52.378;13.122;2023-04-20T06:59:12;11.90;62.00
42227;DHT22;27892;52.378;13.122;2023-04-20T07:01:41;12.20;63.40
42227;DHT22;27892;52.378;13.122;2023-04-20T07:04:07;12.60;63.20
42227;DHT22;27892;52.378;13.122;2023-04-20T07:06:33;12.60;59.90
42227;DHT22;27892;52.378;13.122;2023-04-20T07:08:58;12.50;59.70
42227;DHT22;27892;52.378;13.122;2023-04-20T07:11:24;12.40;60.90
42227;DHT22;27892;52.378;13.122;2023-04-20T07:13:50;12.50;61.30
42227;DHT22;27892;52.378;13.122;2023-04-20T07:16:15;13.30;62.60
42227;DHT22;27892;52.378;13.122;2023-04-20T07:18:41;14.30;60.50
42227;DHT22;27892;52.378;13.122;2023-04-20T07:21:06;14.20;55.20
42227;DHT22;27892;52.378;13.122;2023-04-20T07:23:32;14.10;56.50
42227;DHT22;27892;52.378;13.122;2023-04-20T07:25:58;13.70;56.00
42227;DHT22;27892;52.378;13.122;2023-04-20T07:28:23;13.20;55.00
42227;DHT22;27892;52.378;13.122;2023-04-20T07:30:49;12.70;57.00
42227;DHT22;27892;52.378;13.122;2023-04-20T07:33:15;12.40;57.20
42227;DHT22;27892;52.378;13.122;2023-04-20T07:35:40;12.20;57.30
42227;DHT22;27892;52.378;13.122;2023-04-20T07:38:06;11.90;58.00
42227;DHT22;27892;52.378;13.122;2023-04-20T07:40:31;12.00;59.40
42227;DHT22;27892;52.378;13.122;2023-04-20T07:42:57;12.30;59.60
42227;DHT22;27892;52.378;13.122;2023-04-20T07:45:23;12.00;58.10
42227;DHT22;27892;52.378;13.122;2023-04-20T07:47:48;12.10;58.80
42227;DHT22;27892;52.378;13.122;2023-04-20T07:50:16;12.30;58.90
42227;DHT22;27892;52.378;13.122;2023-04-20T07:52:42;12.40;58.80
42227;DHT22;27892;52.378;13.122;2023-04-20T07:55:11;12.50;58.80
42227;DHT22;27892;52.378;13.122;2023-04-20T07:57:39;12.40;58.30
42227;DHT22;27892;52.378;13.122;2023-04-20T08:00:05;12.50;59.20
42227;DHT22;27892;52.378;13.122;2023-04-20T08:02:34;12.70;58.80
42227;DHT22;27892;52.378;13.122;2023-04-20T08:05:03;12.70;57.70
42227;DHT22;27892;52.378;13.122;2023-04-20T08:07:29;12.60;58.40
42227;DHT22;27892;52.378;13.122;2023-04-20T08:09:55;12.80;59.00
42227;DHT22;27892;52.378;13.122;2023-04-20T08:12:21;12.90;58.50
42227;DHT22;27892;52.378;13.122;2023-04-20T08:14:47;13.10;59.10
42227;DHT22;27892;52.378;13.122;2023-04-20T08:17:13;13.10;58.20
42227;DHT22;27892;52.378;13.122;2023-04-20T08:19:38;13.10;58.50
42227;DHT22;27892;52.378;13.122;2023-04-20T08:22:04;13.00;57.50
42227;DHT22;27892;52.378;13.122;2023-04-20T08:24:30;12.90;57.20
42227;DHT22;27892;52.378;13.122;2023-04-20T08:26:56;12.70;58.30
42227;DHT22;27892;52.378;13.122;2023-04-20T08:29:23;13.10;59.30
42227;DHT22;27892;52.378;13.122;2023-04-20T08:31:49;13.40;57.80
42227;DHT22;27892;52.378;13.122;2023-04-20T08:34:15;13.30;56.60
42227;DHT22;27892;52.378;13.122;2023-04-20T08:36:41;13.40;57.70
42227;DHT22;27892;52.378;13.122;2023-04-20T08:39:10;13.70;57.80
42227;DHT22;27892;52.378;13.122;2023-04-20T08:41:36;13.60;56.20
42227;DHT22;27892;52.378;13.122;2023-04-20T08:44:03;13.60;56.50
42227;DHT22;27892;52.378;13.122;2023-04-20T08:46:29;13.50;55.90
42227;DHT22;27892;52.378;13.122;2023-04-20T08:48:55;13.80;56.80
42227;DHT22;27892;52.378;13.122;2023-04-20T08:51:22;14.00;55.60
42227;DHT22;27892;52.378;13.122;2023-04-20T08:53:48;13.80;55.50
42227;DHT22;27892;52.378;13.122;2023-04-20T08:56:14;13.80;55.90
42227;DHT22;27892;52.378;13.122;2023-04-20T08:58:40;13.90;56.70
42227;DHT22;27892;52.378;13.122;2023-04-20T09:01:10;14.00;56.40
42227;DHT22;27892;52.378;13.122;2023-04-20T09:03:40;13.90;56.00
42227;DHT22;27892;52.378;13.122;2023-04-20T09:06:16;13.90;55.90
42227;DHT22;27892;52.378;13.122;2023-04-20T09:08:42;13.80;56.00
42227;DHT22;27892;52.378;13.122;2023-04-20T09:11:25;13.80;56.10
42227;DHT22;27892;52.378;13.122;2023-04-20T09:14:02;13.80;56.90
42227;DHT22;27892;52.378;13.122;2023-04-20T09:16:30;13.90;56.50
42227;DHT22;27892;52.378;13.122;2023-04-20T09:18:56;13.40;55.90
42227;DHT22;27892;52.378;13.122;2023-04-20T09:21:24;13.20;56.70
42227;DHT22;27892;52.378;13.122;2023-04-20T09:24:04;13.00;57.00
42227;DHT22;27892;52.378;13.122;2023-04-20T09:26:35;12.80;57.40
42227;DHT22;27892;52.378;13.122;2023-04-20T09:29:01;12.90;58.50
42227;DHT22;27892;52.378;13.122;2023-04-20T09:31:27;12.70;57.50
42227;DHT22;27892;52.378;13.122;2023-04-20T09:34:03;13.00;58.30
42227;DHT22;27892;52.378;13.122;2023-04-20T09:36:35;13.10;58.30
42227;DHT22;27892;52.378;13.122;2023-04-20T09:39:04;13.20;58.60
42227;DHT22;27892;52.378;13.122;2023-04-20T09:41:31;13.10;58.40
42227;DHT22;27892;52.378;13.122;2023-04-20T09:43:58;13.00;58.80
42227;DHT22;27892;52.378;13.122;2023-04-20T09:46:28;13.10;59.80
42227;DHT22;27892;52.378;13.122;2023-04-20T09:48:54;13.30;59.60
42227;DHT22;27892;52.378;13.122;2023-04-20T09:51:20;13.20;59.90
42227;DHT22;27892;52.378;13.122;2023-04-20T09:53:47;13.40;60.60
42227;DHT22;27892;52.378;13.122;2023-04-20T09:56:14;13.60;60.70
42227;DHT22;27892;52.378;13.122;2023-04-20T09:58:42;13.70;60.90
42227;DHT22;27892;52.378;13.122;2023-04-20T10:01:09;13.90;60.60
42227;DHT22;27892;52.378;13.122;2023-04-20T10:03:35;13.90;60.10
42227;DHT22;27892;52.378;13.122;2023-04-20T10:06:01;14.00;60.20
42227;DHT22;27892;52.378;13.122;2023-04-20T10:08:27;13.90;59.50
42227;DHT22;27892;52.378;13.122;2023-04-20T10:10:52;13.90;59.80
42227;DHT22;27892;52.378;13.122;2023-04-20T10:13:18;13.60;59.40
42227;DHT22;27892;52.378;13.122;2023-04-20T10:15:46;13.50;59.40
42227;DHT22;27892;52.378;13.122;2023-04-20T10:18:20;13.50;60.40
42227;DHT22;27892;52.378;13.122;2023-04-20T10:20:48;13.70;61.60
42227;DHT22;27892;52.378;13.122;2023-04-20T10:23:14;13.80;61.70
42227;DHT22;27892;52.378;13.122;2023-04-20T10:25:41;14.10;60.50
42227;DHT22;27892;52.378;13.122;2023-04-20T10:28:07;14.20;60.00
42227;DHT22;27892;52.378;13.122;2023-04-20T10:30:35;14.10;59.30
42227;DHT22;27892;52.378;13.122;2023-04-20T10:33:06;14.00;59.50
42227;DHT22;27892;52.378;13.122;2023-04-20T10:35:52;14.10;59.70
42227;DHT22;27892;52.378;13.122;2023-04-20T10:38:33;14.40;60.00
42227;DHT22;27892;52.378;13.122;2023-04-20T10:41:09;14.60;59.00
42227;DHT22;27892;52.378;13.122;2023-04-20T10:43:35;14.60;59.10
42227;DHT22;27892;52.378;13.122;2023-04-20T10:46:32;14.70;59.40
42227;DHT22;27892;52.378;13.122;2023-04-20T10:49:00;14.90;58.30
42227;DHT22;27892;52.378;13.122;2023-04-20T10:51:26;15.00;58.90
42227;DHT22;27892;52.378;13.122;2023-04-20T10:56:24;15.40;58.20
42227;DHT22;27892;52.378;13.122;2023-04-20T10:58:50;15.60;58.00
42227;DHT22;27892;52.378;13.122;2023-04-20T11:01:16;15.60;57.50
42227;DHT22;27892;52.378;13.122;2023-04-20T11:03:48;15.50;57.50
42227;DHT22;27892;52.378;13.122;2023-04-20T11:06:16;15.60;57.70
42227;DHT22;27892;52.378;13.122;2023-04-20T11:08:42;15.60;57.50
42227;DHT22;27892;52.378;13.122;2023-04-20T11:11:22;15.70;57.80
42227;DHT22;27892;52.378;13.122;2023-04-20T11:14:06;15.90;56.90
42227;DHT22;27892;52.378;13.122;2023-04-20T11:16:33;15.90;56.70
42227;DHT22;27892;52.378;13.122;2023-04-20T11:18:59;16.00;56.60
42227;DHT22;27892;52.378;13.122;2023-04-20T11:21:35;15.90;56.00
42227;DHT22;27892;52.378;13.122;2023-04-20T11:24:01;16.00;56.20
42227;DHT22;27892;52.378;13.122;2023-04-20T11:26:37;16.00;55.80
42227;DHT22;27892;52.378;13.122;2023-04-20T11:29:02;16.10;56.00
42227;DHT22;27892;52.378;13.122;2023-04-20T11:31:29;16.20;55.30
42227;DHT22;27892;52.378;13.122;2023-04-20T11:33:55;16.00;54.90
42227;DHT22;27892;52.378;13.122;2023-04-20T11:36:22;16.00;55.60
42227;DHT22;27892;52.378;13.122;2023-04-20T11:38:47;15.80;54.60
42227;DHT22;27892;52.378;13.122;2023-04-20T11:41:15;15.80;55.10
42227;DHT22;27892;52.378;13.122;2023-04-20T11:43:40;16.00;55.30
42227;DHT22;27892;52.378;13.122;2023-04-20T11:46:18;16.10;54.70
42227;DHT22;27892;52.378;13.122;2023-04-20T11:48:47;16.20;56.30
42227;DHT22;27892;52.378;13.122;2023-04-20T11:51:14;16.20;55.50
42227;DHT22;27892;52.378;13.122;2023-04-20T11:53:40;16.20;55.50
42227;DHT22;27892;52.378;13.122;2023-04-20T11:56:06;16.10;55.60
42227;DHT22;27892;52.378;13.122;2023-04-20T11:58:33;16.10;56.40
42227;DHT22;27892;52.378;13.122;2023-04-20T12:00:58;16.10;56.50
42227;DHT22;27892;52.378;13.122;2023-04-20T12:03:25;16.20;56.60
42227;DHT22;27892;52.378;13.122;2023-04-20T12:05:51;16.30;56.60
42227;DHT22;27892;52.378;13.122;2023-04-20T12:08:17;16.40;56.20
42227;DHT22;27892;52.378;13.122;2023-04-20T12:10:43;16.40;57.40
42227;DHT22;27892;52.378;13.122;2023-04-20T12:13:09;16.50;57.20
42227;DHT22;27892;52.378;13.122;2023-04-20T12:15:35;16.60;56.40
42227;DHT22;27892;52.378;13.122;2023-04-20T12:18:00;16.80;56.80
42227;DHT22;27892;52.378;13.122;2023-04-20T12:20:26;17.00;55.80
42227;DHT22;27892;52.378;13.122;2023-04-20T12:22:52;17.10;56.40
42227;DHT22;27892;52.378;13.122;2023-04-20T12:25:18;17.30;56.10
42227;DHT22;27892;52.378;13.122;2023-04-20T12:27:44;17.30;54.30
42227;DHT22;27892;52.378;13.122;2023-04-20T12:30:10;17.40;54.30
42227;DHT22;27892;52.378;13.122;2023-04-20T12:32:36;17.50;54.20
42227;DHT22;27892;52.378;13.122;2023-04-20T12:35:01;17.60;54.20
42227;DHT22;27892;52.378;13.122;2023-04-20T12:37:27;17.80;55.30
42227;DHT22;27892;52.378;13.122;2023-04-20T12:39:53;18.00;53.90
42227;DHT22;27892;52.378;13.122;2023-04-20T12:42:18;18.10;53.40
42227;DHT22;27892;52.378;13.122;2023-04-20T12:44:44;18.20;53.50
42227;DHT22;27892;52.378;13.122;2023-04-20T12:47:10;18.50;54.90
42227;DHT22;27892;52.378;13.122;2023-04-20T12:49:37;18.80;53.80
42227;DHT22;27892;52.378;13.122;2023-04-20T12:52:03;19.00;52.10
42227;DHT22;27892;52.378;13.122;2023-04-20T12:54:29;19.20;52.90
42227;DHT22;27892;52.378;13.122;2023-04-20T12:56:55;19.70;51.20
42227;DHT22;27892;52.378;13.122;2023-04-20T12:59:21;20.10;51.30
42227;DHT22;27892;52.378;13.122;2023-04-20T13:01:47;20.50;51.20
42227;DHT22;27892;52.378;13.122;2023-04-20T13:04:12;20.50;48.10
42227;DHT22;27892;52.378;13.122;2023-04-20T13:06:40;20.70;49.30
42227;DHT22;27892;52.378;13.122;2023-04-20T13:09:06;20.70;47.40
42227;DHT22;27892;52.378;13.122;2023-04-20T13:11:32;20.90;49.00
42227;DHT22;27892;52.378;13.122;2023-04-20T13:13:57;20.80;47.60
42227;DHT22;27892;52.378;13.122;2023-04-20T13:16:23;20.50;47.30
42227;DHT22;27892;52.378;13.122;2023-04-20T13:18:49;20.30;47.90
42227;DHT22;27892;52.378;13.122;2023-04-20T13:21:15;19.90;48.30
42227;DHT22;27892;52.378;13.122;2023-04-20T13:23:41;19.50;49.10
42227;DHT22;27892;52.378;13.122;2023-04-20T13:26:06;20.20;49.20
42227;DHT22;27892;52.378;13.122;2023-04-20T13:28:33;20.60;48.80
42227;DHT22;27892;52.378;13.122;2023-04-20T13:30:58;20.90;48.20
42227;DHT22;27892;52.378;13.122;2023-04-20T13:33:24;21.50;48.20
42227;DHT22;27892;52.378;13.122;2023-04-20T13:35:50;21.90;46.40
42227;DHT22;27892;52.378;13.122;2023-04-20T13:38:16;22.40;47.90
42227;DHT22;27892;52.378;13.122;2023-04-20T13:40:42;22.90;45.10
42227;DHT22;27892;52.378;13.122;2023-04-20T13:43:08;23.50;46.20
42227;DHT22;27892;52.378;13.122;2023-04-20T13:45:34;24.40;44.90
42227;DHT22;27892;52.378;13.122;2023-04-20T13:48:00;24.00;40.50
42227;DHT22;27892;52.378;13.122;2023-04-20T13:50:26;22.90;42.50
42227;DHT22;27892;52.378;13.122;2023-04-20T13:52:51;22.70;44.60
42227;DHT22;27892;52.378;13.122;2023-04-20T13:55:18;23.40;45.70
42227;DHT22;27892;52.378;13.122;2023-04-20T13:57:45;24.00;43.30
42227;DHT22;27892;52.378;13.122;2023-04-20T14:00:11;23.70;41.80
42227;DHT22;27892;52.378;13.122;2023-04-20T14:02:37;23.30;43.30
42227;DHT22;27892;52.378;13.122;2023-04-20T14:05:02;23.40;42.90
42227;DHT22;27892;52.378;13.122;2023-04-20T14:07:30;23.20;42.40
42227;DHT22;27892;52.378;13.122;2023-04-20T14:09:57;23.40;41.50
42227;DHT22;27892;52.378;13.122;2023-04-20T14:12:24;23.30;43.50
42227;DHT22;27892;52.378;13.122;2023-04-20T14:14:52;23.70;41.20
42227;DHT22;27892;52.378;13.122;2023-04-20T14:17:18;24.00;40.60
42227;DHT22;27892;52.378;13.122;2023-04-20T14:19:43;24.10;41.00
42227;DHT22;27892;52.378;13.122;2023-04-20T14:22:09;23.50;39.80
42227;DHT22;27892;52.378;13.122;2023-04-20T14:24:35;22.30;40.90
42227;DHT22;27892;52.378;13.122;2023-04-20T14:27:02;21.60;43.30
42227;DHT22;27892;52.378;13.122;2023-04-20T14:29:27;21.80;44.00
42227;DHT22;27892;52.378;13.122;2023-04-20T14:31:53;21.70;44.10
42227;DHT22;27892;52.378;13.122;2023-04-20T14:34:19;21.70;44.00
42227;DHT22;27892;52.378;13.122;2023-04-20T14:36:45;21.60;43.60
42227;DHT22;27892;52.378;13.122;2023-04-20T14:39:10;21.10;45.10
42227;DHT22;27892;52.378;13.122;2023-04-20T14:41:36;20.60;45.10
42227;DHT22;27892;52.378;13.122;2023-04-20T14:44:02;20.30;45.00
42227;DHT22;27892;52.378;13.122;2023-04-20T14:46:28;20.30;46.80
42227;DHT22;27892;52.378;13.122;2023-04-20T14:48:54;20.60;46.30
42227;DHT22;27892;52.378;13.122;2023-04-20T14:51:19;20.70;46.60
42227;DHT22;27892;52.378;13.122;2023-04-20T14:53:45;21.00;46.40
42227;DHT22;27892;52.378;13.122;2023-04-20T14:56:11;20.70;45.70
42227;DHT22;27892;52.378;13.122;2023-04-20T14:58:36;20.70;45.60
42227;DHT22;27892;52.378;13.122;2023-04-20T15:01:03;20.70;46.00
42227;DHT22;27892;52.378;13.122;2023-04-20T15:03:29;20.40;45.80
42227;DHT22;27892;52.378;13.122;2023-04-20T15:06:00;20.30;46.20
42227;DHT22;27892;52.378;13.122;2023-04-20T15:08:26;20.30;46.60
42227;DHT22;27892;52.378;13.122;2023-04-20T15:10:52;20.20;46.40
42227;DHT22;27892;52.378;13.122;2023-04-20T15:13:24;20.20;46.50